Time,TemperatureF,DewpointF,PressureIn,WindDirection,WindDirectionDegrees,WindSpeedMPH,WindSpeedGustMPH,Humidity,HourlyPrecipIn,Conditions,Clouds,dailyrainin,SoftwareType,DateUTC
2013-12-15 00:04:00,22.1,17.4,30.97,SSE,165,2.0,2.0,82,0.00,,,0.00,meteohub,2013-12-15 08:04:00,
2013-12-15 00:09:00,21.9,17.2,30.97,SSE,156,2.0,3.0,82,0.00,,,0.00,meteohub,2013-12-15 08:09:00,
2013-12-15 00:14:00,21.9,17.2,30.97,South,169,4.0,4.0,82,0.00,,,0.00,meteohub,2013-12-15 08:14:00,
2013-12-15 00:19:00,22.3,17.6,30.96,SSE,156,3.0,4.0,82,0.00,,,0.00,meteohub,2013-12-15 08:19:00,
2013-12-15 00:24:00,22.5,17.8,30.96,South,174,2.0,4.0,82,0.00,,,0.00,meteohub,2013-12-15 08:24:00,
2013-12-15 00:30:00,22.5,17.6,30.96,SSE,160,2.0,4.0,81,0.00,,,0.00,meteohub,2013-12-15 08:30:00,
2013-12-15 00:35:00,22.3,17.4,30.96,SSE,161,2.0,4.0,81,0.00,,,0.00,meteohub,2013-12-15 08:35:00,
2013-12-15 00:40:00,22.3,17.4,30.96,SSE,163,3.0,4.0,81,0.00,,,0.00,meteohub,2013-12-15 08:40:00,
2013-12-15 00:45:00,22.3,17.4,30.96,SSE,163,2.0,3.0,81,0.00,,,0.00,meteohub,2013-12-15 08:45:00,
2013-12-15 00:50:00,22.3,17.4,30.95,SSE,159,3.0,4.0,81,0.00,,,0.00,meteohub,2013-12-15 08:50:00,
2013-12-15 00:55:00,22.3,17.4,30.95,SSE,166,2.0,4.0,81,0.00,,,0.00,meteohub,2013-12-15 08:55:00,
2013-12-15 01:00:00,22.3,17.4,30.95,SSE,165,3.0,4.0,81,0.00,,,0.00,meteohub,2013-12-15 09:00:00,
2013-12-15 01:05:00,22.1,17.2,30.95,SE,144,2.0,3.0,81,0.00,,,0.00,meteohub,2013-12-15 09:05:00,
2013-12-15 01:10:00,22.1,17.2,30.95,SSE,165,2.0,3.0,81,0.00,,,0.00,meteohub,2013-12-15 09:10:00,
2013-12-15 01:15:00,21.7,16.9,30.95,South,171,2.0,3.0,81,0.00,,,0.00,meteohub,2013-12-15 09:15:00,
2013-12-15 01:20:00,21.7,17.1,30.95,South,169,2.0,3.0,82,0.00,,,0.00,meteohub,2013-12-15 09:20:00,
2013-12-15 01:25:00,21.7,17.1,30.95,South,183,3.0,3.0,82,0.00,,,0.00,meteohub,2013-12-15 09:25:00,
2013-12-15 01:30:00,21.7,17.1,30.95,South,180,3.0,3.0,82,0.00,,,0.00,meteohub,2013-12-15 09:30:00,
2013-12-15 01:35:00,21.6,16.9,30.95,SSE,159,2.0,3.0,82,0.00,,,0.00,meteohub,2013-12-15 09:35:00,
2013-12-15 01:40:00,21.6,16.9,30.95,SSE,160,2.0,3.0,82,0.00,,,0.00,meteohub,2013-12-15 09:40:00,
2013-12-15 01:45:00,21.2,16.5,30.95,SSE,158,2.0,3.0,82,0.00,,,0.00,meteohub,2013-12-15 09:45:00,
2013-12-15 01:50:00,21.0,16.7,30.95,SSE,151,1.0,3.0,83,0.00,,,0.00,meteohub,2013-12-15 09:50:00,
2013-12-15 01:55:00,20.8,16.5,30.95,SSE,152,1.0,3.0,83,0.00,,,0.00,meteohub,2013-12-15 09:55:00,
2013-12-15 02:00:00,20.8,16.5,30.95,SSE,156,1.0,3.0,83,0.00,,,0.00,meteohub,2013-12-15 10:00:00,
2013-12-15 02:05:00,20.7,16.3,30.95,SSE,156,2.0,3.0,83,0.00,,,0.00,meteohub,2013-12-15 10:05:00,
2013-12-15 02:10:00,20.3,16.0,30.95,SSE,150,2.0,2.0,83,0.00,,,0.00,meteohub,2013-12-15 10:10:00,
2013-12-15 02:15:00,20.1,16.0,30.95,SSE,163,2.0,2.0,84,0.00,,,0.00,meteohub,2013-12-15 10:15:00,
2013-12-15 02:20:00,20.1,16.0,30.95,SSE,163,2.0,3.0,84,0.00,,,0.00,meteohub,2013-12-15 10:20:00,
2013-12-15 02:25:00,20.5,16.3,30.95,South,172,3.0,3.0,84,0.00,,,0.00,meteohub,2013-12-15 10:25:00,
2013-12-15 02:30:00,20.3,16.2,30.95,SSE,165,2.0,3.0,84,0.00,,,0.00,meteohub,2013-12-15 10:30:00,
2013-12-15 02:35:00,20.3,16.2,30.95,SSE,148,2.0,3.0,84,0.00,,,0.00,meteohub,2013-12-15 10:35:00,
2013-12-15 02:40:00,20.3,16.5,30.95,SSE,165,1.0,3.0,85,0.00,,,0.00,meteohub,2013-12-15 10:40:00,
2013-12-15 02:45:00,20.5,16.7,30.95,South,175,1.0,3.0,85,0.00,,,0.00,meteohub,2013-12-15 10:45:00,
2013-12-15 02:50:00,20.5,16.7,30.95,SSE,161,2.0,3.0,85,0.00,,,0.00,meteohub,2013-12-15 10:50:00,
2013-12-15 02:55:00,20.5,16.7,30.95,SE,141,2.0,2.0,85,0.00,,,0.00,meteohub,2013-12-15 10:55:00,
2013-12-15 03:00:00,18.1,14.7,30.95,South,176,2.0,3.0,86,0.00,,,0.00,meteohub,2013-12-15 11:00:00,
2013-12-15 03:05:00,18.1,14.7,30.95,South,176,2.0,3.0,86,0.00,,,0.00,meteohub,2013-12-15 11:05:00,
2013-12-15 03:10:00,18.1,14.7,30.95,North,-999,-999.0,2.0,86,0.00,,,0.00,meteohub,2013-12-15 11:10:00,
2013-12-15 08:11:00,18.3,14.9,30.90,North,-999,-999.0,-999.0,86,-99.99,,,0.00,meteohub,2013-12-15 16:11:00,
2013-12-15 08:16:00,18.9,15.4,30.91,North,-999,-999.0,-999.0,86,0.00,,,0.00,meteohub,2013-12-15 16:16:00,
2013-12-15 08:21:00,19.2,15.4,30.91,SSE,158,3.0,-999.0,85,0.00,,,0.00,meteohub,2013-12-15 16:21:00,
2013-12-15 08:26:00,19.6,15.8,30.92,SSE,163,2.0,4.0,85,0.00,,,0.00,meteohub,2013-12-15 16:26:00,
2013-12-15 08:31:00,19.9,16.2,30.92,SSE,151,2.0,4.0,85,0.00,,,0.00,meteohub,2013-12-15 16:31:00,
2013-12-15 08:36:00,20.7,16.9,30.92,SE,145,2.0,4.0,85,0.00,,,0.00,meteohub,2013-12-15 16:36:00,
2013-12-15 08:41:00,21.4,17.1,30.93,SSE,161,2.0,3.0,83,0.00,,,0.00,meteohub,2013-12-15 16:41:00,
2013-12-15 08:46:00,21.9,17.6,30.93,SSE,161,2.0,3.0,83,0.00,,,0.00,meteohub,2013-12-15 16:46:00,
2013-12-15 08:51:00,22.5,17.6,30.94,SSE,160,1.0,3.0,81,0.00,,,0.00,meteohub,2013-12-15 16:51:00,
2013-12-15 08:56:00,22.8,17.6,30.94,SSE,159,1.0,3.0,80,0.00,,,0.00,meteohub,2013-12-15 16:56:00,
2013-12-15 09:01:00,23.4,18.1,30.94,SSE,165,2.0,2.0,80,0.00,,,0.00,meteohub,2013-12-15 17:01:00,
2013-12-15 09:06:00,23.7,18.1,30.94,SSE,161,2.0,2.0,79,0.00,,,0.00,meteohub,2013-12-15 17:06:00,
2013-12-15 09:11:00,24.4,18.5,30.94,SSE,161,1.0,2.0,78,0.00,,,0.00,meteohub,2013-12-15 17:11:00,
2013-12-15 09:16:00,25.0,18.9,30.95,SSE,167,2.0,2.0,77,0.00,,,0.00,meteohub,2013-12-15 17:16:00,
2013-12-15 09:21:00,25.7,19.2,30.95,SSE,154,1.0,2.0,76,0.00,,,0.00,meteohub,2013-12-15 17:21:00,
2013-12-15 09:26:00,26.4,19.6,30.95,South,169,1.0,2.0,75,0.00,,,0.00,meteohub,2013-12-15 17:26:00,
2013-12-15 09:31:00,27.1,19.9,30.95,SSE,161,1.0,2.0,74,0.00,,,0.00,meteohub,2013-12-15 17:31:00,
2013-12-15 09:36:00,27.9,20.7,30.95,SSE,153,1.0,2.0,74,0.00,,,0.00,meteohub,2013-12-15 17:36:00,
2013-12-15 09:41:00,29.5,21.6,30.95,SSE,150,1.0,2.0,72,0.00,,,0.00,meteohub,2013-12-15 17:41:00,
2013-12-15 09:47:00,31.3,22.3,30.95,SSE,150,0.0,2.0,69,0.00,,,0.00,meteohub,2013-12-15 17:47:00,
2013-12-15 09:52:00,32.7,23.4,30.95,SSE,150,0.0,2.0,68,0.00,,,0.00,meteohub,2013-12-15 17:52:00,
2013-12-15 09:57:00,33.6,23.2,30.95,SSE,150,0.0,1.0,65,0.00,,,0.00,meteohub,2013-12-15 17:57:00,
2013-12-15 10:02:00,33.8,23.4,30.95,SSE,150,0.0,1.0,65,0.00,,,0.00,meteohub,2013-12-15 18:02:00,
2013-12-15 10:07:00,34.2,25.0,30.95,SSE,150,0.0,0.0,69,0.00,,,0.00,meteohub,2013-12-15 18:07:00,
2013-12-15 10:12:00,34.5,25.7,30.95,SSE,150,0.0,0.0,70,0.00,,,0.00,meteohub,2013-12-15 18:12:00,
2013-12-15 10:17:00,34.7,27.3,30.95,SSE,150,0.0,0.0,74,0.00,,,0.00,meteohub,2013-12-15 18:17:00,
2013-12-15 10:22:00,35.2,27.5,30.94,SSE,150,0.0,0.0,73,0.00,,,0.00,meteohub,2013-12-15 18:22:00,
2013-12-15 10:27:00,36.3,27.9,30.94,SSE,150,1.0,0.0,71,0.00,,,0.00,meteohub,2013-12-15 18:27:00,
2013-12-15 10:32:00,36.9,28.0,30.94,NW,326,1.0,1.0,70,0.00,,,0.00,meteohub,2013-12-15 18:32:00,
2013-12-15 10:37:00,37.2,29.7,30.94,NW,324,1.0,1.0,74,0.00,,,0.00,meteohub,2013-12-15 18:37:00,
2013-12-15 10:42:00,37.8,29.5,30.94,NW,324,0.0,1.0,72,0.00,,,0.00,meteohub,2013-12-15 18:42:00,
2013-12-15 10:47:00,38.1,29.8,30.93,NW,324,0.0,1.0,72,0.00,,,0.00,meteohub,2013-12-15 18:47:00,
2013-12-15 10:52:00,38.5,29.8,30.93,NW,324,0.0,1.0,71,0.00,,,0.00,meteohub,2013-12-15 18:52:00,
2013-12-15 10:57:00,38.8,29.5,30.93,NW,324,0.0,1.0,69,0.00,,,0.00,meteohub,2013-12-15 18:57:00,
2013-12-15 11:02:00,39.0,30.0,30.92,NW,324,0.0,1.0,70,0.00,,,0.00,meteohub,2013-12-15 19:02:00,
2013-12-15 11:07:00,39.4,30.4,30.92,NW,325,0.0,1.0,70,0.00,,,0.00,meteohub,2013-12-15 19:07:00,
2013-12-15 11:12:00,39.9,32.0,30.92,NW,324,0.0,0.0,73,0.00,,,0.00,meteohub,2013-12-15 19:12:00,
2013-12-15 11:17:00,42.1,32.0,30.91,NW,325,0.0,0.0,67,0.00,,,0.00,meteohub,2013-12-15 19:17:00,
2013-12-15 11:22:00,42.6,31.6,30.91,NW,324,0.0,0.0,65,0.00,,,0.00,meteohub,2013-12-15 19:22:00,
2013-12-15 11:27:00,42.4,31.8,30.91,NW,325,0.0,0.0,66,0.00,,,0.00,meteohub,2013-12-15 19:27:00,
2013-12-15 11:32:00,43.0,32.4,30.90,NW,324,0.0,0.0,66,0.00,,,0.00,meteohub,2013-12-15 19:32:00,
2013-12-15 11:37:00,43.0,32.4,30.90,NW,325,0.0,0.0,66,0.00,,,0.00,meteohub,2013-12-15 19:37:00,
2013-12-15 11:42:00,41.7,32.0,30.90,NW,318,0.0,0.0,68,0.00,,,0.00,meteohub,2013-12-15 19:42:00,
2013-12-15 11:47:00,41.0,32.0,30.90,NW,319,2.0,2.0,70,0.00,,,0.00,meteohub,2013-12-15 19:47:00,
2013-12-15 11:48:00,40.8,31.8,30.89,NW,315,2.0,2.0,70,0.00,,,0.00,meteohub,2013-12-15 19:48:00,
2013-12-15 11:53:00,40.5,32.2,30.89,NW,317,3.0,3.0,72,0.00,,,0.00,meteohub,2013-12-15 19:53:00,
2013-12-15 11:58:00,40.5,31.8,30.88,NW,316,2.0,4.0,71,0.00,,,0.00,meteohub,2013-12-15 19:58:00,
2013-12-15 12:03:00,40.3,32.0,30.89,NW,311,2.0,4.0,72,0.00,,,0.00,meteohub,2013-12-15 20:03:00,
2013-12-15 12:08:00,40.3,31.6,30.88,NW,313,1.0,4.0,71,0.00,,,0.00,meteohub,2013-12-15 20:08:00,
2013-12-15 12:13:00,40.3,32.4,30.88,NW,314,2.0,3.0,73,0.00,,,0.00,meteohub,2013-12-15 20:13:00,
2013-12-15 12:18:00,40.5,32.2,30.88,NW,320,1.0,3.0,72,0.00,,,0.00,meteohub,2013-12-15 20:18:00,
2013-12-15 12:23:00,40.8,32.9,30.88,NW,326,0.0,2.0,73,0.00,,,0.00,meteohub,2013-12-15 20:23:00,
2013-12-15 12:28:00,40.8,32.9,30.87,NW,326,0.0,2.0,73,0.00,,,0.00,meteohub,2013-12-15 20:28:00,
2013-12-15 12:33:00,41.2,32.9,30.87,NW,326,0.0,2.0,72,0.00,,,0.00,meteohub,2013-12-15 20:33:00,
2013-12-15 12:38:00,41.4,33.1,30.87,NW,326,0.0,1.0,72,0.00,,,0.00,meteohub,2013-12-15 20:38:00,
2013-12-15 12:43:00,41.5,33.3,30.87,NW,326,0.0,0.0,72,0.00,,,0.00,meteohub,2013-12-15 20:43:00,
2013-12-15 12:48:00,41.4,33.4,30.86,NW,325,0.0,0.0,73,0.00,,,0.00,meteohub,2013-12-15 20:48:00,
2013-12-15 12:53:00,41.5,33.6,30.86,NW,326,0.0,0.0,73,0.00,,,0.00,meteohub,2013-12-15 20:53:00,
2013-12-15 12:58:00,41.2,33.4,30.86,NW,326,0.0,0.0,74,0.00,,,0.00,meteohub,2013-12-15 20:58:00,
2013-12-15 13:03:00,41.2,33.3,30.85,NW,326,0.0,0.0,73,0.00,,,0.00,meteohub,2013-12-15 21:03:00,
2013-12-15 13:08:00,41.2,33.8,30.85,NW,326,0.0,0.0,75,0.00,,,0.00,meteohub,2013-12-15 21:08:00,
2013-12-15 13:13:00,41.4,34.0,30.85,NW,326,0.0,0.0,75,0.00,,,0.00,meteohub,2013-12-15 21:13:00,
2013-12-15 13:18:00,41.4,33.6,30.85,NW,326,0.0,0.0,74,0.00,,,0.00,meteohub,2013-12-15 21:18:00,
2013-12-15 13:23:00,41.4,33.6,30.85,NW,326,1.0,0.0,74,0.00,,,0.00,meteohub,2013-12-15 21:23:00,
2013-12-15 13:28:00,41.5,33.8,30.84,NW,326,0.0,1.0,74,0.00,,,0.00,meteohub,2013-12-15 21:28:00,
2013-12-15 13:33:00,41.7,34.0,30.84,NW,324,0.0,1.0,74,0.00,,,0.00,meteohub,2013-12-15 21:33:00,
2013-12-15 13:38:00,41.5,34.2,30.84,NW,324,0.0,1.0,75,0.00,,,0.00,meteohub,2013-12-15 21:38:00,
2013-12-15 13:43:00,41.7,34.0,30.84,NW,324,0.0,1.0,74,0.00,,,0.00,meteohub,2013-12-15 21:43:00,
2013-12-15 13:48:00,41.7,34.3,30.84,NW,325,0.0,1.0,75,0.00,,,0.00,meteohub,2013-12-15 21:48:00,
2013-12-15 13:53:00,41.5,33.8,30.84,NW,324,0.0,1.0,74,0.00,,,0.00,meteohub,2013-12-15 21:53:00,
2013-12-15 13:58:00,41.4,34.0,30.84,NW,306,0.0,1.0,75,0.00,,,0.00,meteohub,2013-12-15 21:58:00,
2013-12-15 14:03:00,41.4,34.0,30.84,NW,306,0.0,1.0,75,0.00,,,0.00,meteohub,2013-12-15 22:03:00,
2013-12-15 14:08:00,41.2,33.8,30.84,NW,306,0.0,1.0,75,0.00,,,0.00,meteohub,2013-12-15 22:08:00,
2013-12-15 14:13:00,41.2,33.8,30.83,NW,306,0.0,1.0,75,0.00,,,0.00,meteohub,2013-12-15 22:13:00,
2013-12-15 14:18:00,41.2,33.8,30.83,NW,306,0.0,1.0,75,0.00,,,0.00,meteohub,2013-12-15 22:18:00,
2013-12-15 14:23:00,41.4,33.6,30.83,NW,306,0.0,0.0,74,0.00,,,0.00,meteohub,2013-12-15 22:23:00,
2013-12-15 14:28:00,41.5,33.8,30.83,NW,306,0.0,0.0,74,0.00,,,0.00,meteohub,2013-12-15 22:28:00,
2013-12-15 14:33:00,41.4,33.6,30.83,NW,306,0.0,0.0,74,0.00,,,0.00,meteohub,2013-12-15 22:33:00,
2013-12-15 14:38:00,41.2,33.8,30.83,NW,306,0.0,0.0,75,0.00,,,0.00,meteohub,2013-12-15 22:38:00,
2013-12-15 14:43:00,41.0,34.0,30.83,NW,306,0.0,0.0,76,0.00,,,0.00,meteohub,2013-12-15 22:43:00,
2013-12-15 14:48:00,40.8,33.8,30.83,NW,306,0.0,0.0,76,0.00,,,0.00,meteohub,2013-12-15 22:48:00,
2013-12-15 14:53:00,40.8,34.2,30.83,NW,306,0.0,0.0,77,0.00,,,0.00,meteohub,2013-12-15 22:53:00,
2013-12-15 14:58:00,40.6,33.6,30.83,NW,306,0.0,0.0,76,0.00,,,0.00,meteohub,2013-12-15 22:58:00,
2013-12-15 15:03:00,40.8,34.5,30.83,NW,306,0.0,0.0,78,0.00,,,0.00,meteohub,2013-12-15 23:03:00,
2013-12-15 15:08:00,40.8,34.2,30.82,NW,306,0.0,0.0,77,0.00,,,0.00,meteohub,2013-12-15 23:08:00,
2013-12-15 15:13:00,40.8,34.5,30.82,NW,306,0.0,0.0,78,0.00,,,0.00,meteohub,2013-12-15 23:13:00,
2013-12-15 15:18:00,40.6,34.0,30.83,NW,306,0.0,0.0,77,0.00,,,0.00,meteohub,2013-12-15 23:18:00,
2013-12-15 15:23:00,40.8,34.2,30.82,NW,306,0.0,0.0,77,0.00,,,0.00,meteohub,2013-12-15 23:23:00,
2013-12-15 15:28:00,41.2,34.5,30.83,NW,306,0.0,0.0,77,0.00,,,0.00,meteohub,2013-12-15 23:28:00,
2013-12-15 15:33:00,41.2,34.5,30.83,NW,306,0.0,0.0,77,0.00,,,0.00,meteohub,2013-12-15 23:33:00,
2013-12-15 15:38:00,41.0,34.3,30.83,NW,306,0.0,0.0,77,0.00,,,0.00,meteohub,2013-12-15 23:38:00,
2013-12-15 15:43:00,40.6,33.6,30.83,NW,306,0.0,0.0,76,0.00,,,0.00,meteohub,2013-12-15 23:43:00,
2013-12-15 15:48:00,40.1,33.4,30.83,NW,306,0.0,0.0,77,0.00,,,0.00,meteohub,2013-12-15 23:48:00,
2013-12-15 15:53:00,39.9,33.6,30.83,NW,305,0.0,0.0,78,0.00,,,0.00,meteohub,2013-12-15 23:53:00,
2013-12-15 15:59:00,39.9,33.3,30.83,NW,305,0.0,0.0,77,0.00,,,0.00,meteohub,2013-12-15 23:59:00,
2013-12-15 16:04:00,39.7,33.1,30.83,NW,306,0.0,0.0,77,0.00,,,0.00,meteohub,2013-12-16 00:04:00,
2013-12-15 16:09:00,39.6,32.9,30.83,NW,306,0.0,0.0,77,0.00,,,0.00,meteohub,2013-12-16 00:09:00,
2013-12-15 16:14:00,39.4,33.1,30.83,NW,306,0.0,0.0,78,0.00,,,0.00,meteohub,2013-12-16 00:14:00,
2013-12-15 16:19:00,39.0,32.7,30.83,SSW,199,0.0,1.0,78,0.00,,,0.00,meteohub,2013-12-16 00:19:00,
2013-12-15 16:24:00,38.7,32.4,30.83,SSW,198,0.0,1.0,78,0.00,,,0.00,meteohub,2013-12-16 00:24:00,
2013-12-15 16:29:00,38.1,32.2,30.83,SSW,195,0.0,1.0,79,0.00,,,0.00,meteohub,2013-12-16 00:29:00,
2013-12-15 16:34:00,37.9,32.4,30.83,SSW,195,1.0,1.0,80,0.00,,,0.00,meteohub,2013-12-16 00:34:00,
2013-12-15 16:39:00,37.8,32.2,30.83,SSE,156,1.0,1.0,80,0.00,,,0.00,meteohub,2013-12-16 00:39:00,
2013-12-15 16:44:00,37.6,32.0,30.83,SSE,155,1.0,1.0,80,0.00,,,0.00,meteohub,2013-12-16 00:44:00,
2013-12-15 16:49:00,37.2,31.6,30.83,SSE,159,2.0,2.0,80,0.00,,,0.00,meteohub,2013-12-16 00:49:00,
2013-12-15 16:54:00,36.7,31.5,30.83,SSE,153,1.0,2.0,81,0.00,,,0.00,meteohub,2013-12-16 00:54:00,
2013-12-15 16:59:00,36.3,31.1,30.83,SSE,149,1.0,2.0,81,0.00,,,0.00,meteohub,2013-12-16 00:59:00,
2013-12-15 17:04:00,36.0,30.7,30.83,SSE,155,1.0,2.0,81,0.00,,,0.00,meteohub,2013-12-16 01:04:00,
2013-12-15 17:09:00,35.6,30.7,30.83,SSE,161,2.0,2.0,82,0.00,,,0.00,meteohub,2013-12-16 01:09:00,
2013-12-15 17:14:00,35.2,30.4,30.83,SSE,153,2.0,2.0,82,0.00,,,0.00,meteohub,2013-12-16 01:14:00,
2013-12-15 17:19:00,34.9,30.2,30.84,SSE,155,2.0,2.0,83,0.00,,,0.00,meteohub,2013-12-16 01:19:00,
2013-12-15 17:24:00,34.5,29.8,30.84,SSE,165,2.0,2.0,83,0.00,,,0.00,meteohub,2013-12-16 01:24:00,
2013-12-15 17:29:00,34.2,29.5,30.84,SSE,159,2.0,2.0,83,0.00,,,0.00,meteohub,2013-12-16 01:29:00,
2013-12-15 17:34:00,34.0,29.3,30.84,SSE,150,1.0,2.0,83,0.00,,,0.00,meteohub,2013-12-16 01:34:00,
2013-12-15 17:39:00,34.0,29.3,30.84,SSE,167,2.0,2.0,83,0.00,,,0.00,meteohub,2013-12-16 01:39:00,
2013-12-15 17:44:00,33.6,28.9,30.83,SSE,157,2.0,2.0,83,0.00,,,0.00,meteohub,2013-12-16 01:44:00,
2013-12-15 17:49:00,33.4,28.8,30.84,SSE,153,2.0,2.0,83,0.00,,,0.00,meteohub,2013-12-16 01:49:00,
2013-12-15 17:54:00,33.1,28.2,30.84,SSE,161,2.0,3.0,82,0.00,,,0.00,meteohub,2013-12-16 01:54:00,
2013-12-15 17:59:00,32.7,28.2,30.84,SSE,165,1.0,3.0,83,0.00,,,0.00,meteohub,2013-12-16 01:59:00,
2013-12-15 18:04:00,32.5,28.0,30.84,South,175,2.0,3.0,83,0.00,,,0.00,meteohub,2013-12-16 02:04:00,
2013-12-15 18:09:00,32.4,28.0,30.85,SSE,163,1.0,3.0,84,0.00,,,0.00,meteohub,2013-12-16 02:09:00,
2013-12-15 18:14:00,32.2,27.9,30.85,SSE,161,1.0,2.0,84,0.00,,,0.00,meteohub,2013-12-16 02:14:00,
2013-12-15 18:19:00,31.8,27.5,30.85,SSE,150,1.0,2.0,84,0.00,,,0.00,meteohub,2013-12-16 02:19:00,
2013-12-15 18:24:00,31.6,27.3,30.86,SSE,155,1.0,1.0,84,0.00,,,0.00,meteohub,2013-12-16 02:24:00,
2013-12-15 18:29:00,31.5,27.0,30.86,SSE,161,2.0,2.0,83,0.00,,,0.00,meteohub,2013-12-16 02:29:00,
2013-12-15 18:34:00,31.1,26.6,30.86,SSE,153,2.0,2.0,83,0.00,,,0.00,meteohub,2013-12-16 02:34:00,
2013-12-15 18:39:00,30.7,26.2,30.87,SSE,153,2.0,2.0,83,0.00,,,0.00,meteohub,2013-12-16 02:39:00,
2013-12-15 18:44:00,30.6,26.1,30.87,SSE,155,2.0,2.0,83,0.00,,,0.00,meteohub,2013-12-16 02:44:00,
2013-12-15 18:49:00,30.2,25.9,30.87,SSE,159,3.0,3.0,84,0.00,,,0.00,meteohub,2013-12-16 02:49:00,
2013-12-15 18:54:00,30.0,26.1,30.87,South,170,2.0,3.0,85,0.00,,,0.00,meteohub,2013-12-16 02:54:00,
2013-12-15 18:59:00,30.0,26.1,30.87,SSE,167,3.0,3.0,85,0.00,,,0.00,meteohub,2013-12-16 02:59:00,
2013-12-15 19:04:00,30.0,26.1,30.87,SSE,159,3.0,3.0,85,0.00,,,0.00,meteohub,2013-12-16 03:04:00,
2013-12-15 19:09:00,29.7,25.7,30.87,SSE,148,3.0,4.0,85,0.00,,,0.00,meteohub,2013-12-16 03:09:00,
2013-12-15 19:14:00,29.3,25.3,30.87,SSE,157,2.0,4.0,85,0.00,,,0.00,meteohub,2013-12-16 03:14:00,
2013-12-15 19:19:00,28.9,25.0,30.87,SSE,155,2.0,4.0,85,0.00,,,0.00,meteohub,2013-12-16 03:19:00,
2013-12-15 19:24:00,28.9,25.3,30.87,SSE,163,2.0,3.0,86,0.00,,,0.00,meteohub,2013-12-16 03:24:00,
2013-12-15 19:29:00,28.9,25.0,30.87,South,171,2.0,3.0,85,0.00,,,0.00,meteohub,2013-12-16 03:29:00,
2013-12-15 19:34:00,28.9,25.0,30.87,SSE,166,2.0,3.0,85,0.00,,,0.00,meteohub,2013-12-16 03:34:00,
2013-12-15 19:39:00,28.8,24.8,30.87,SSE,156,3.0,3.0,85,0.00,,,0.00,meteohub,2013-12-16 03:39:00,
2013-12-15 19:44:00,28.8,24.6,30.87,SSE,166,4.0,4.0,84,0.00,,,0.00,meteohub,2013-12-16 03:44:00,
2013-12-15 19:49:00,28.8,24.6,30.87,SE,134,2.0,4.0,84,0.00,,,0.00,meteohub,2013-12-16 03:49:00,
2013-12-15 19:54:00,28.8,24.6,30.87,SE,146,1.0,4.0,84,0.00,,,0.00,meteohub,2013-12-16 03:54:00,
2013-12-15 19:59:00,28.6,24.4,30.87,SSE,153,1.0,4.0,84,0.00,,,0.00,meteohub,2013-12-16 03:59:00,
2013-12-15 20:04:00,28.2,24.3,30.88,SSE,156,2.0,3.0,85,0.00,,,0.00,meteohub,2013-12-16 04:04:00,
2013-12-15 20:09:00,28.0,24.1,30.88,SSE,160,1.0,2.0,85,0.00,,,0.00,meteohub,2013-12-16 04:09:00,
2013-12-15 20:14:00,28.0,24.4,30.88,SSE,167,2.0,2.0,86,0.00,,,0.00,meteohub,2013-12-16 04:14:00,
2013-12-15 20:19:00,28.0,24.1,30.87,SSE,157,2.0,2.0,85,0.00,,,0.00,meteohub,2013-12-16 04:19:00,
2013-12-15 20:24:00,27.9,24.3,30.88,SSE,155,1.0,3.0,86,0.00,,,0.00,meteohub,2013-12-16 04:24:00,
2013-12-15 20:29:00,27.7,24.1,30.88,SSE,156,1.0,3.0,86,0.00,,,0.00,meteohub,2013-12-16 04:29:00,
2013-12-15 20:34:00,27.5,23.9,30.88,SSE,157,1.0,3.0,86,0.00,,,0.00,meteohub,2013-12-16 04:34:00,
2013-12-15 20:39:00,27.5,23.9,30.88,SSE,150,1.0,2.0,86,0.00,,,0.00,meteohub,2013-12-16 04:39:00,
2013-12-15 20:44:00,27.3,23.7,30.88,SSE,151,1.0,2.0,86,0.00,,,0.00,meteohub,2013-12-16 04:44:00,
2013-12-15 20:49:00,27.1,23.5,30.88,SSE,165,2.0,2.0,86,0.00,,,0.00,meteohub,2013-12-16 04:49:00,
2013-12-15 20:54:00,27.1,23.7,30.88,SSE,165,2.0,3.0,87,0.00,,,0.00,meteohub,2013-12-16 04:54:00,
2013-12-15 20:59:00,27.1,23.7,30.88,South,172,2.0,3.0,87,0.00,,,0.00,meteohub,2013-12-16 04:59:00,
2013-12-15 21:01:00,27.1,23.7,30.87,SSE,167,2.0,3.0,87,0.00,,,0.00,meteohub,2013-12-16 05:01:00,
2013-12-15 21:02:00,27.1,23.5,30.88,SSE,162,1.0,3.0,86,0.00,,,0.00,meteohub,2013-12-16 05:02:00,
2013-12-15 21:03:00,27.1,23.5,30.88,SSE,166,1.0,3.0,86,0.00,,,0.00,meteohub,2013-12-16 05:03:00,
2013-12-15 21:04:00,27.1,23.5,30.87,SE,142,1.0,3.0,86,0.00,,,0.00,meteohub,2013-12-16 05:04:00,
2013-12-15 21:09:00,27.0,23.4,30.88,SSE,155,1.0,3.0,86,0.00,,,0.00,meteohub,2013-12-16 05:09:00,
2013-12-15 21:14:00,26.8,23.4,30.88,SSE,160,2.0,3.0,87,0.00,,,0.00,meteohub,2013-12-16 05:14:00,
2013-12-15 21:19:00,26.4,23.0,30.88,South,185,1.0,2.0,87,0.00,,,0.00,meteohub,2013-12-16 05:19:00,
2013-12-15 21:24:00,26.4,23.0,30.88,SSE,167,2.0,2.0,87,0.00,,,0.00,meteohub,2013-12-16 05:24:00,
2013-12-15 21:29:00,26.2,22.8,30.88,South,173,2.0,2.0,87,0.00,,,0.00,meteohub,2013-12-16 05:29:00,
2013-12-15 21:34:00,26.4,23.0,30.89,SSE,160,2.0,3.0,87,0.00,,,0.00,meteohub,2013-12-16 05:34:00,
2013-12-15 21:39:00,26.2,22.8,30.88,SSE,164,2.0,3.0,87,0.00,,,0.00,meteohub,2013-12-16 05:39:00,
2013-12-15 21:44:00,26.2,22.8,30.89,SSE,156,1.0,3.0,87,0.00,,,0.00,meteohub,2013-12-16 05:44:00,
2013-12-15 21:49:00,26.2,22.8,30.89,South,180,1.0,3.0,87,0.00,,,0.00,meteohub,2013-12-16 05:49:00,
2013-12-15 21:54:00,26.2,22.8,30.89,SSE,167,2.0,3.0,87,0.00,,,0.00,meteohub,2013-12-16 05:54:00,
2013-12-15 21:59:00,26.1,22.6,30.89,SSE,160,3.0,3.0,87,0.00,,,0.00,meteohub,2013-12-16 05:59:00,
2013-12-15 22:04:00,26.1,22.6,30.89,SSE,163,3.0,3.0,87,0.00,,,0.00,meteohub,2013-12-16 06:04:00,
2013-12-15 22:09:00,26.1,23.0,30.89,SSE,166,2.0,3.0,88,0.00,,,0.00,meteohub,2013-12-16 06:09:00,
2013-12-15 22:14:00,26.2,22.8,30.90,SSE,157,2.0,3.0,87,0.00,,,0.00,meteohub,2013-12-16 06:14:00,
2013-12-15 22:19:00,26.1,22.6,30.89,SSE,159,2.0,3.0,87,0.00,,,0.00,meteohub,2013-12-16 06:19:00,
2013-12-15 22:24:00,25.9,22.5,30.89,SSE,160,2.0,3.0,87,0.00,,,0.00,meteohub,2013-12-16 06:24:00,
2013-12-15 22:29:00,25.9,22.5,30.89,South,173,3.0,3.0,87,0.00,,,0.00,meteohub,2013-12-16 06:29:00,
2013-12-15 22:34:00,26.1,22.6,30.89,SSE,155,2.0,3.0,87,0.00,,,0.00,meteohub,2013-12-16 06:34:00,
2013-12-15 22:39:00,26.1,22.5,30.89,SSE,157,2.0,3.0,86,0.00,,,0.00,meteohub,2013-12-16 06:39:00,
2013-12-15 22:44:00,25.9,22.3,30.90,SSE,167,2.0,3.0,86,0.00,,,0.00,meteohub,2013-12-16 06:44:00,
2013-12-15 22:49:00,25.7,22.5,30.89,SSE,167,3.0,4.0,87,0.00,,,0.00,meteohub,2013-12-16 06:49:00,
2013-12-15 22:54:00,25.9,22.3,30.90,South,171,3.0,4.0,86,0.00,,,0.00,meteohub,2013-12-16 06:54:00,
2013-12-15 22:59:00,25.9,22.3,30.90,SSE,149,2.0,4.0,86,0.00,,,0.00,meteohub,2013-12-16 06:59:00,
2013-12-15 23:04:00,25.9,22.3,30.90,SSE,157,2.0,4.0,86,0.00,,,0.00,meteohub,2013-12-16 07:04:00,
2013-12-15 23:09:00,25.9,22.3,30.90,SSE,161,3.0,3.0,86,0.00,,,0.00,meteohub,2013-12-16 07:09:00,
2013-12-15 23:14:00,25.9,21.9,30.90,SSE,164,2.0,4.0,85,0.00,,,0.00,meteohub,2013-12-16 07:14:00,
2013-12-15 23:19:00,25.9,21.9,30.90,SSE,162,2.0,4.0,85,0.00,,,0.00,meteohub,2013-12-16 07:19:00,
2013-12-15 23:24:00,25.5,21.6,30.90,South,184,2.0,4.0,85,0.00,,,0.00,meteohub,2013-12-16 07:24:00,
2013-12-15 23:29:00,25.5,21.9,30.90,SSE,153,2.0,3.0,86,0.00,,,0.00,meteohub,2013-12-16 07:29:00,
2013-12-15 23:34:00,25.5,21.9,30.90,SSE,157,2.0,3.0,86,0.00,,,0.00,meteohub,2013-12-16 07:34:00,
2013-12-15 23:39:00,25.5,21.9,30.90,SSE,163,1.0,3.0,86,0.00,,,0.00,meteohub,2013-12-16 07:39:00,
2013-12-15 23:44:00,25.5,21.6,30.90,SE,133,1.0,3.0,85,0.00,,,0.00,meteohub,2013-12-16 07:44:00,
2013-12-15 23:49:00,25.3,21.7,30.90,SSE,156,1.0,3.0,86,0.00,,,0.00,meteohub,2013-12-16 07:49:00,
2013-12-15 23:54:00,25.0,21.4,30.90,South,173,2.0,3.0,86,0.00,,,0.00,meteohub,2013-12-16 07:54:00,
2013-12-15 23:59:00,24.8,21.2,30.90,SSE,165,2.0,2.0,86,0.00,,,0.00,meteohub,2013-12-16 07:59:00,